sensor_id;sensor_type;location;lat;lon;timestamp;P1;durP1;ratioP1;P2;durP2;ratioP2
19225;SDS011;9747;48.536;12.522;2022-12-07T00:00:54;3.50;;;3.05;;
19225;SDS011;9747;48.536;12.522;2022-12-07T00:03:23;3.58;;;2.85;;
19225;SDS011;9747;48.536;12.522;2022-12-07T00:05:51;3.72;;;3.13;;
19225;SDS011;9747;48.536;12.522;2022-12-07T00:08:18;4.47;;;2.95;;
19225;SDS011;9747;48.536;12.522;2022-12-07T00:10:46;4.22;;;2.88;;
19225;SDS011;9747;48.536;12.522;2022-12-07T00:13:13;3.22;;;2.92;;
19225;SDS011;9747;48.536;12.522;2022-12-07T00:15:42;4.32;;;2.88;;
19225;SDS011;9747;48.536;12.522;2022-12-07T00:18:10;2.97;;;2.70;;
19225;SDS011;9747;48.536;12.522;2022-12-07T00:20:37;3.33;;;3.00;;
19225;SDS011;9747;48.536;12.522;2022-12-07T00:23:05;3.80;;;2.78;;
19225;SDS011;9747;48.536;12.522;2022-12-07T00:25:32;3.50;;;2.70;;
19225;SDS011;9747;48.536;12.522;2022-12-07T00:27:59;3.00;;;2.80;;
19225;SDS011;9747;48.536;12.522;2022-12-07T00:30:27;3.25;;;2.88;;
19225;SDS011;9747;48.536;12.522;2022-12-07T00:32:56;2.65;;;2.45;;
19225;SDS011;9747;48.536;12.522;2022-12-07T00:35:23;2.88;;;2.58;;
19225;SDS011;9747;48.536;12.522;2022-12-07T00:37:50;2.92;;;2.70;;
19225;SDS011;9747;48.536;12.522;2022-12-07T00:40:18;3.05;;;2.78;;
19225;SDS011;9747;48.536;12.522;2022-12-07T00:42:45;2.72;;;2.53;;
19225;SDS011;9747;48.536;12.522;2022-12-07T00:45:13;3.25;;;2.88;;
19225;SDS011;9747;48.536;12.522;2022-12-07T00:47:41;2.70;;;2.50;;
19225;SDS011;9747;48.536;12.522;2022-12-07T00:50:09;2.65;;;2.45;;
19225;SDS011;9747;48.536;12.522;2022-12-07T00:52:37;2.60;;;2.40;;
19225;SDS011;9747;48.536;12.522;2022-12-07T00:55:05;2.80;;;2.60;;
19225;SDS011;9747;48.536;12.522;2022-12-07T00:57:33;2.72;;;2.50;;
19225;SDS011;9747;48.536;12.522;2022-12-07T01:00:00;2.47;;;2.28;;
19225;SDS011;9747;48.536;12.522;2022-12-07T01:02:28;2.67;;;2.47;;
19225;SDS011;9747;48.536;12.522;2022-12-07T01:04:55;2.60;;;2.40;;
19225;SDS011;9747;48.536;12.522;2022-12-07T01:07:24;2.70;;;2.50;;
19225;SDS011;9747;48.536;12.522;2022-12-07T01:09:52;2.42;;;2.22;;
19225;SDS011;9747;48.536;12.522;2022-12-07T01:12:19;2.70;;;2.50;;
19225;SDS011;9747;48.536;12.522;2022-12-07T01:14:47;2.78;;;2.58;;
19225;SDS011;9747;48.536;12.522;2022-12-07T01:17:14;2.30;;;2.20;;
19225;SDS011;9747;48.536;12.522;2022-12-07T01:19:41;2.70;;;2.50;;
19225;SDS011;9747;48.536;12.522;2022-12-07T01:22:09;2.40;;;2.20;;
19225;SDS011;9747;48.536;12.522;2022-12-07T01:24:38;2.45;;;2.35;;
19225;SDS011;9747;48.536;12.522;2022-12-07T01:27:05;2.50;;;2.30;;
19225;SDS011;9747;48.536;12.522;2022-12-07T01:29:32;2.15;;;2.05;;
19225;SDS011;9747;48.536;12.522;2022-12-07T01:32:00;2.22;;;2.13;;
19225;SDS011;9747;48.536;12.522;2022-12-07T01:34:27;2.30;;;2.20;;
19225;SDS011;9747;48.536;12.522;2022-12-07T01:36:55;2.20;;;2.10;;
19225;SDS011;9747;48.536;12.522;2022-12-07T01:39:22;2.38;;;2.17;;
19225;SDS011;9747;48.536;12.522;2022-12-07T01:41:51;1.90;;;1.80;;
19225;SDS011;9747;48.536;12.522;2022-12-07T01:44:20;2.40;;;2.20;;
19225;SDS011;9747;48.536;12.522;2022-12-07T01:46:50;2.45;;;2.28;;
19225;SDS011;9747;48.536;12.522;2022-12-07T01:49:24;2.55;;;2.40;;
19225;SDS011;9747;48.536;12.522;2022-12-07T01:51:56;2.20;;;2.00;;
19225;SDS011;9747;48.536;12.522;2022-12-07T01:54:32;2.30;;;2.20;;
19225;SDS011;9747;48.536;12.522;2022-12-07T01:57:01;2.20;;;2.10;;
19225;SDS011;9747;48.536;12.522;2022-12-07T01:59:29;2.13;;;2.03;;
19225;SDS011;9747;48.536;12.522;2022-12-07T02:01:57;2.28;;;2.08;;
19225;SDS011;9747;48.536;12.522;2022-12-07T02:04:24;2.63;;;2.42;;
19225;SDS011;9747;48.536;12.522;2022-12-07T02:06:52;2.10;;;2.00;;
19225;SDS011;9747;48.536;12.522;2022-12-07T02:09:20;2.00;;;1.90;;
19225;SDS011;9747;48.536;12.522;2022-12-07T02:11:47;2.15;;;2.05;;
19225;SDS011;9747;48.536;12.522;2022-12-07T02:14:16;2.28;;;2.10;;
19225;SDS011;9747;48.536;12.522;2022-12-07T02:16:47;2.00;;;1.90;;
19225;SDS011;9747;48.536;12.522;2022-12-07T02:19:41;2.00;;;1.90;;
19225;SDS011;9747;48.536;12.522;2022-12-07T02:22:45;2.25;;;2.05;;
19225;SDS011;9747;48.536;12.522;2022-12-07T02:25:40;2.42;;;2.22;;
19225;SDS011;9747;48.536;12.522;2022-12-07T02:28:26;2.17;;;2.05;;
19225;SDS011;9747;48.536;12.522;2022-12-07T02:31:00;2.20;;;1.98;;
19225;SDS011;9747;48.536;12.522;2022-12-07T02:33:31;2.20;;;2.00;;
19225;SDS011;9747;48.536;12.522;2022-12-07T02:36:03;2.00;;;1.90;;
19225;SDS011;9747;48.536;12.522;2022-12-07T02:38:35;2.35;;;2.10;;
19225;SDS011;9747;48.536;12.522;2022-12-07T02:41:07;2.10;;;2.00;;
19225;SDS011;9747;48.536;12.522;2022-12-07T02:43:39;2.00;;;1.90;;
19225;SDS011;9747;48.536;12.522;2022-12-07T02:46:13;2.00;;;1.90;;
19225;SDS011;9747;48.536;12.522;2022-12-07T02:48:43;1.88;;;1.77;;
19225;SDS011;9747;48.536;12.522;2022-12-07T02:51:11;2.00;;;1.90;;
19225;SDS011;9747;48.536;12.522;2022-12-07T02:53:39;2.00;;;1.90;;
19225;SDS011;9747;48.536;12.522;2022-12-07T02:56:09;1.98;;;1.88;;
19225;SDS011;9747;48.536;12.522;2022-12-07T02:58:49;1.75;;;1.65;;
19225;SDS011;9747;48.536;12.522;2022-12-07T03:01:26;2.15;;;1.98;;
19225;SDS011;9747;48.536;12.522;2022-12-07T03:03:59;1.92;;;1.80;;
19225;SDS011;9747;48.536;12.522;2022-12-07T03:06:35;2.17;;;2.05;;
19225;SDS011;9747;48.536;12.522;2022-12-07T03:09:09;1.90;;;1.80;;
19225;SDS011;9747;48.536;12.522;2022-12-07T03:11:42;1.80;;;1.70;;
19225;SDS011;9747;48.536;12.522;2022-12-07T03:14:15;2.17;;;2.08;;
19225;SDS011;9747;48.536;12.522;2022-12-07T03:16:49;2.10;;;2.00;;
19225;SDS011;9747;48.536;12.522;2022-12-07T03:19:21;1.85;;;1.75;;
19225;SDS011;9747;48.536;12.522;2022-12-07T03:21:53;1.77;;;1.67;;
19225;SDS011;9747;48.536;12.522;2022-12-07T03:24:24;1.90;;;1.80;;
19225;SDS011;9747;48.536;12.522;2022-12-07T03:26:57;2.40;;;1.77;;
19225;SDS011;9747;48.536;12.522;2022-12-07T03:29:30;1.98;;;1.83;;
19225;SDS011;9747;48.536;12.522;2022-12-07T03:32:03;1.90;;;1.80;;
19225;SDS011;9747;48.536;12.522;2022-12-07T03:34:35;1.75;;;1.65;;
19225;SDS011;9747;48.536;12.522;2022-12-07T03:37:07;2.38;;;2.08;;
19225;SDS011;9747;48.536;12.522;2022-12-07T03:39:41;1.95;;;1.85;;
19225;SDS011;9747;48.536;12.522;2022-12-07T03:42:16;1.85;;;1.75;;
19225;SDS011;9747;48.536;12.522;2022-12-07T03:44:43;2.08;;;1.90;;
19225;SDS011;9747;48.536;12.522;2022-12-07T03:47:13;1.85;;;1.73;;
19225;SDS011;9747;48.536;12.522;2022-12-07T03:49:46;2.10;;;2.00;;
19225;SDS011;9747;48.536;12.522;2022-12-07T03:52:19;2.00;;;1.90;;
19225;SDS011;9747;48.536;12.522;2022-12-07T03:54:52;2.20;;;2.10;;
19225;SDS011;9747;48.536;12.522;2022-12-07T03:57:24;2.28;;;2.08;;
19225;SDS011;9747;48.536;12.522;2022-12-07T03:59:53;2.13;;;1.92;;
19225;SDS011;9747;48.536;12.522;2022-12-07T04:02:23;2.00;;;1.90;;
19225;SDS011;9747;48.536;12.522;2022-12-07T04:04:51;2.33;;;2.20;;
19225;SDS011;9747;48.536;12.522;2022-12-07T04:07:19;2.40;;;2.20;;
19225;SDS011;9747;48.536;12.522;2022-12-07T04:09:46;2.80;;;2.60;;
19225;SDS011;9747;48.536;12.522;2022-12-07T04:12:14;2.30;;;2.20;;
19225;SDS011;9747;48.536;12.522;2022-12-07T04:14:41;2.30;;;2.10;;
19225;SDS011;9747;48.536;12.522;2022-12-07T04:17:08;2.25;;;2.15;;
19225;SDS011;9747;48.536;12.522;2022-12-07T04:19:37;2.40;;;2.20;;
19225;SDS011;9747;48.536;12.522;2022-12-07T04:22:05;2.42;;;2.33;;
19225;SDS011;9747;48.536;12.522;2022-12-07T04:24:33;2.55;;;2.40;;
19225;SDS011;9747;48.536;12.522;2022-12-07T04:27:01;2.45;;;2.25;;
19225;SDS011;9747;48.536;12.522;2022-12-07T04:29:29;2.50;;;2.30;;
19225;SDS011;9747;48.536;12.522;2022-12-07T04:31:56;2.30;;;2.20;;
19225;SDS011;9747;48.536;12.522;2022-12-07T04:34:24;2.33;;;2.20;;
19225;SDS011;9747;48.536;12.522;2022-12-07T04:36:52;2.20;;;2.03;;
19225;SDS011;9747;48.536;12.522;2022-12-07T04:39:21;2.20;;;2.10;;
19225;SDS011;9747;48.536;12.522;2022-12-07T04:41:51;2.25;;;2.15;;
19225;SDS011;9747;48.536;12.522;2022-12-07T04:44:18;2.38;;;2.20;;
19225;SDS011;9747;48.536;12.522;2022-12-07T04:46:47;2.00;;;1.90;;
19225;SDS011;9747;48.536;12.522;2022-12-07T04:49:15;2.33;;;2.20;;
19225;SDS011;9747;48.536;12.522;2022-12-07T04:51:43;2.20;;;2.10;;
19225;SDS011;9747;48.536;12.522;2022-12-07T04:54:13;2.15;;;2.05;;
19225;SDS011;9747;48.536;12.522;2022-12-07T04:56:41;2.20;;;2.10;;
19225;SDS011;9747;48.536;12.522;2022-12-07T04:59:09;2.20;;;2.10;;
19225;SDS011;9747;48.536;12.522;2022-12-07T05:01:37;2.20;;;2.00;;
19225;SDS011;9747;48.536;12.522;2022-12-07T05:04:05;2.03;;;1.92;;
19225;SDS011;9747;48.536;12.522;2022-12-07T05:06:33;2.17;;;2.08;;
19225;SDS011;9747;48.536;12.522;2022-12-07T05:09:01;2.58;;;2.38;;
19225;SDS011;9747;48.536;12.522;2022-12-07T05:11:30;2.20;;;2.10;;
19225;SDS011;9747;48.536;12.522;2022-12-07T05:14:05;2.30;;;2.20;;
19225;SDS011;9747;48.536;12.522;2022-12-07T05:16:35;2.33;;;2.13;;
19225;SDS011;9747;48.536;12.522;2022-12-07T05:19:03;2.55;;;2.35;;
19225;SDS011;9747;48.536;12.522;2022-12-07T05:21:31;2.30;;;2.10;;
19225;SDS011;9747;48.536;12.522;2022-12-07T05:23:58;2.72;;;2.35;;
19225;SDS011;9747;48.536;12.522;2022-12-07T05:26:26;2.60;;;2.40;;
19225;SDS011;9747;48.536;12.522;2022-12-07T05:28:55;3.15;;;2.38;;
19225;SDS011;9747;48.536;12.522;2022-12-07T05:31:24;3.33;;;2.20;;
19225;SDS011;9747;48.536;12.522;2022-12-07T05:33:52;3.08;;;2.45;;
19225;SDS011;9747;48.536;12.522;2022-12-07T05:36:20;4.20;;;2.00;;
19225;SDS011;9747;48.536;12.522;2022-12-07T05:38:48;2.80;;;2.53;;
19225;SDS011;9747;48.536;12.522;2022-12-07T05:41:16;3.30;;;2.53;;
19225;SDS011;9747;48.536;12.522;2022-12-07T05:44:03;2.35;;;2.15;;
19225;SDS011;9747;48.536;12.522;2022-12-07T05:46:31;3.63;;;2.28;;
19225;SDS011;9747;48.536;12.522;2022-12-07T05:48:59;3.00;;;2.33;;
19225;SDS011;9747;48.536;12.522;2022-12-07T05:51:27;2.78;;;2.20;;
19225;SDS011;9747;48.536;12.522;2022-12-07T05:53:54;2.45;;;2.25;;
19225;SDS011;9747;48.536;12.522;2022-12-07T05:56:22;3.83;;;2.17;;
19225;SDS011;9747;48.536;12.522;2022-12-07T05:58:49;3.70;;;2.30;;
19225;SDS011;9747;48.536;12.522;2022-12-07T06:01:35;4.13;;;2.47;;
19225;SDS011;9747;48.536;12.522;2022-12-07T06:04:03;4.00;;;2.20;;
19225;SDS011;9747;48.536;12.522;2022-12-07T06:06:31;4.43;;;2.85;;
19225;SDS011;9747;48.536;12.522;2022-12-07T06:08:58;3.17;;;2.70;;
19225;SDS011;9747;48.536;12.522;2022-12-07T06:11:26;4.35;;;2.72;;
19225;SDS011;9747;48.536;12.522;2022-12-07T06:14:11;3.33;;;2.40;;
19225;SDS011;9747;48.536;12.522;2022-12-07T06:16:40;4.03;;;2.50;;
19225;SDS011;9747;48.536;12.522;2022-12-07T06:19:08;2.80;;;2.60;;
19225;SDS011;9747;48.536;12.522;2022-12-07T06:21:35;2.97;;;2.67;;
19225;SDS011;9747;48.536;12.522;2022-12-07T06:24:03;3.97;;;2.42;;
19225;SDS011;9747;48.536;12.522;2022-12-07T06:26:31;2.60;;;2.40;;
19225;SDS011;9747;48.536;12.522;2022-12-07T06:28:58;4.00;;;2.45;;
19225;SDS011;9747;48.536;12.522;2022-12-07T06:31:26;3.35;;;2.47;;
19225;SDS011;9747;48.536;12.522;2022-12-07T06:33:58;2.60;;;2.40;;
19225;SDS011;9747;48.536;12.522;2022-12-07T06:36:25;4.13;;;2.55;;
19225;SDS011;9747;48.536;12.522;2022-12-07T06:38:53;3.75;;;2.70;;
19225;SDS011;9747;48.536;12.522;2022-12-07T06:41:21;3.28;;;2.85;;
19225;SDS011;9747;48.536;12.522;2022-12-07T06:43:49;4.00;;;2.65;;
19225;SDS011;9747;48.536;12.522;2022-12-07T06:46:16;4.03;;;2.70;;
19225;SDS011;9747;48.536;12.522;2022-12-07T06:48:44;3.70;;;2.90;;
19225;SDS011;9747;48.536;12.522;2022-12-07T06:51:13;5.00;;;2.78;;
19225;SDS011;9747;48.536;12.522;2022-12-07T06:53:40;2.83;;;2.53;;
19225;SDS011;9747;48.536;12.522;2022-12-07T06:56:08;2.78;;;2.50;;
19225;SDS011;9747;48.536;12.522;2022-12-07T06:58:35;2.45;;;2.30;;
19225;SDS011;9747;48.536;12.522;2022-12-07T07:01:02;3.75;;;2.70;;
19225;SDS011;9747;48.536;12.522;2022-12-07T07:03:35;3.22;;;2.42;;
19225;SDS011;9747;48.536;12.522;2022-12-07T07:06:03;3.72;;;2.45;;
19225;SDS011;9747;48.536;12.522;2022-12-07T07:08:33;3.25;;;2.53;;
19225;SDS011;9747;48.536;12.522;2022-12-07T07:11:01;3.60;;;2.60;;
19225;SDS011;9747;48.536;12.522;2022-12-07T07:13:29;2.92;;;2.67;;
19225;SDS011;9747;48.536;12.522;2022-12-07T07:15:56;2.80;;;2.55;;
19225;SDS011;9747;48.536;12.522;2022-12-07T07:18:24;3.88;;;2.78;;
19225;SDS011;9747;48.536;12.522;2022-12-07T07:20:52;2.83;;;2.63;;
19225;SDS011;9747;48.536;12.522;2022-12-07T07:23:20;4.57;;;2.80;;
19225;SDS011;9747;48.536;12.522;2022-12-07T07:25:49;3.03;;;2.75;;
19225;SDS011;9747;48.536;12.522;2022-12-07T07:28:17;3.75;;;3.00;;
19225;SDS011;9747;48.536;12.522;2022-12-07T07:30:45;2.70;;;2.50;;
19225;SDS011;9747;48.536;12.522;2022-12-07T07:33:12;4.72;;;2.60;;
19225;SDS011;9747;48.536;12.522;2022-12-07T07:35:40;3.35;;;2.40;;
19225;SDS011;9747;48.536;12.522;2022-12-07T07:38:08;4.38;;;2.78;;
19225;SDS011;9747;48.536;12.522;2022-12-07T07:40:35;3.40;;;2.70;;
19225;SDS011;9747;48.536;12.522;2022-12-07T07:43:04;2.78;;;2.58;;
19225;SDS011;9747;48.536;12.522;2022-12-07T07:45:32;3.35;;;3.05;;
19225;SDS011;9747;48.536;12.522;2022-12-07T07:47:59;3.17;;;2.60;;
19225;SDS011;9747;48.536;12.522;2022-12-07T07:50:27;2.90;;;2.50;;
19225;SDS011;9747;48.536;12.522;2022-12-07T07:52:54;4.45;;;3.03;;
19225;SDS011;9747;48.536;12.522;2022-12-07T07:55:23;3.88;;;2.72;;
19225;SDS011;9747;48.536;12.522;2022-12-07T07:57:51;4.30;;;2.78;;
19225;SDS011;9747;48.536;12.522;2022-12-07T08:00:20;3.50;;;2.50;;
19225;SDS011;9747;48.536;12.522;2022-12-07T08:02:48;4.80;;;2.80;;
19225;SDS011;9747;48.536;12.522;2022-12-07T08:05:16;4.35;;;2.60;;
19225;SDS011;9747;48.536;12.522;2022-12-07T08:07:44;3.28;;;2.65;;
19225;SDS011;9747;48.536;12.522;2022-12-07T08:10:12;3.25;;;2.78;;
19225;SDS011;9747;48.536;12.522;2022-12-07T08:12:40;3.35;;;2.67;;
19225;SDS011;9747;48.536;12.522;2022-12-07T08:15:37;2.70;;;2.50;;
19225;SDS011;9747;48.536;12.522;2022-12-07T08:18:06;3.88;;;2.83;;
19225;SDS011;9747;48.536;12.522;2022-12-07T08:20:34;3.00;;;2.70;;
19225;SDS011;9747;48.536;12.522;2022-12-07T08:23:03;2.67;;;2.38;;
19225;SDS011;9747;48.536;12.522;2022-12-07T08:25:31;2.83;;;2.63;;
19225;SDS011;9747;48.536;12.522;2022-12-07T08:27:58;3.67;;;2.58;;
19225;SDS011;9747;48.536;12.522;2022-12-07T08:30:27;2.83;;;2.55;;
19225;SDS011;9747;48.536;12.522;2022-12-07T08:32:56;4.05;;;3.00;;
19225;SDS011;9747;48.536;12.522;2022-12-07T08:35:24;3.03;;;2.50;;
19225;SDS011;9747;48.536;12.522;2022-12-07T08:37:52;2.80;;;2.60;;
19225;SDS011;9747;48.536;12.522;2022-12-07T08:40:19;3.08;;;2.70;;
19225;SDS011;9747;48.536;12.522;2022-12-07T08:42:48;2.35;;;2.20;;
19225;SDS011;9747;48.536;12.522;2022-12-07T08:45:16;2.58;;;2.20;;
19225;SDS011;9747;48.536;12.522;2022-12-07T08:47:45;2.70;;;2.50;;
19225;SDS011;9747;48.536;12.522;2022-12-07T08:50:18;2.55;;;2.35;;
19225;SDS011;9747;48.536;12.522;2022-12-07T08:52:47;2.92;;;2.72;;
19225;SDS011;9747;48.536;12.522;2022-12-07T08:55:16;3.30;;;2.67;;
19225;SDS011;9747;48.536;12.522;2022-12-07T08:57:43;2.90;;;2.70;;
19225;SDS011;9747;48.536;12.522;2022-12-07T09:00:11;3.42;;;2.50;;
19225;SDS011;9747;48.536;12.522;2022-12-07T09:02:41;2.70;;;2.50;;
19225;SDS011;9747;48.536;12.522;2022-12-07T09:05:10;2.80;;;2.50;;
19225;SDS011;9747;48.536;12.522;2022-12-07T09:07:41;2.47;;;2.28;;
19225;SDS011;9747;48.536;12.522;2022-12-07T09:10:09;2.90;;;2.70;;
19225;SDS011;9747;48.536;12.522;2022-12-07T09:12:37;2.42;;;2.20;;
19225;SDS011;9747;48.536;12.522;2022-12-07T09:15:05;2.67;;;2.30;;
19225;SDS011;9747;48.536;12.522;2022-12-07T09:17:34;3.83;;;2.88;;
19225;SDS011;9747;48.536;12.522;2022-12-07T09:20:02;2.67;;;2.42;;
19225;SDS011;9747;48.536;12.522;2022-12-07T09:22:31;2.38;;;2.15;;
19225;SDS011;9747;48.536;12.522;2022-12-07T09:25:00;2.58;;;2.33;;
19225;SDS011;9747;48.536;12.522;2022-12-07T09:27:29;2.50;;;2.40;;
19225;SDS011;9747;48.536;12.522;2022-12-07T09:29:56;2.60;;;2.40;;
19225;SDS011;9747;48.536;12.522;2022-12-07T09:32:24;2.88;;;2.47;;
19225;SDS011;9747;48.536;12.522;2022-12-07T09:34:51;2.63;;;2.22;;
19225;SDS011;9747;48.536;12.522;2022-12-07T09:37:19;2.60;;;2.40;;
19225;SDS011;9747;48.536;12.522;2022-12-07T09:39:46;2.58;;;2.38;;
19225;SDS011;9747;48.536;12.522;2022-12-07T09:42:18;2.47;;;2.35;;
19225;SDS011;9747;48.536;12.522;2022-12-07T09:44:54;4.20;;;2.42;;
19225;SDS011;9747;48.536;12.522;2022-12-07T09:47:21;2.55;;;2.35;;
19225;SDS011;9747;48.536;12.522;2022-12-07T09:49:49;2.78;;;2.55;;
19225;SDS011;9747;48.536;12.522;2022-12-07T09:52:17;2.10;;;2.00;;
19225;SDS011;9747;48.536;12.522;2022-12-07T09:54:48;2.60;;;2.40;;
19225;SDS011;9747;48.536;12.522;2022-12-07T09:57:18;2.40;;;2.20;;
19225;SDS011;9747;48.536;12.522;2022-12-07T09:59:54;2.78;;;2.58;;
19225;SDS011;9747;48.536;12.522;2022-12-07T10:02:23;2.65;;;2.40;;
19225;SDS011;9747;48.536;12.522;2022-12-07T10:04:58;2.85;;;2.47;;
19225;SDS011;9747;48.536;12.522;2022-12-07T10:07:26;2.58;;;2.38;;
19225;SDS011;9747;48.536;12.522;2022-12-07T10:09:53;2.55;;;2.35;;
19225;SDS011;9747;48.536;12.522;2022-12-07T10:12:22;2.35;;;2.22;;
19225;SDS011;9747;48.536;12.522;2022-12-07T10:14:53;2.72;;;2.53;;
19225;SDS011;9747;48.536;12.522;2022-12-07T10:17:27;2.40;;;2.20;;
19225;SDS011;9747;48.536;12.522;2022-12-07T10:20:08;2.38;;;2.13;;
19225;SDS011;9747;48.536;12.522;2022-12-07T10:22:58;2.90;;;2.65;;
19225;SDS011;9747;48.536;12.522;2022-12-07T10:25:29;2.38;;;2.28;;
19225;SDS011;9747;48.536;12.522;2022-12-07T10:28:01;2.50;;;2.30;;
19225;SDS011;9747;48.536;12.522;2022-12-07T10:30:45;1.95;;;1.85;;
19225;SDS011;9747;48.536;12.522;2022-12-07T10:33:29;2.67;;;2.47;;
19225;SDS011;9747;48.536;12.522;2022-12-07T10:36:00;2.30;;;2.15;;
19225;SDS011;9747;48.536;12.522;2022-12-07T10:38:44;2.33;;;2.20;;
19225;SDS011;9747;48.536;12.522;2022-12-07T10:41:14;2.38;;;2.20;;
19225;SDS011;9747;48.536;12.522;2022-12-07T10:43:53;2.50;;;2.30;;
19225;SDS011;9747;48.536;12.522;2022-12-07T10:46:29;2.42;;;2.22;;
19225;SDS011;9747;48.536;12.522;2022-12-07T10:49:39;2.28;;;2.17;;
19225;SDS011;9747;48.536;12.522;2022-12-07T10:52:25;2.30;;;2.15;;
19225;SDS011;9747;48.536;12.522;2022-12-07T10:55:14;2.50;;;2.30;;
19225;SDS011;9747;48.536;12.522;2022-12-07T10:57:51;2.10;;;2.00;;
19225;SDS011;9747;48.536;12.522;2022-12-07T11:00:34;2.10;;;2.00;;
19225;SDS011;9747;48.536;12.522;2022-12-07T11:03:25;2.30;;;2.20;;
19225;SDS011;9747;48.536;12.522;2022-12-07T11:06:07;2.30;;;2.20;;
19225;SDS011;9747;48.536;12.522;2022-12-07T11:08:45;2.30;;;2.20;;
19225;SDS011;9747;48.536;12.522;2022-12-07T11:11:26;2.20;;;2.00;;
19225;SDS011;9747;48.536;12.522;2022-12-07T11:14:01;2.08;;;1.98;;
19225;SDS011;9747;48.536;12.522;2022-12-07T11:16:45;2.60;;;2.40;;
19225;SDS011;9747;48.536;12.522;2022-12-07T11:19:41;2.05;;;1.95;;
19225;SDS011;9747;48.536;12.522;2022-12-07T11:22:18;2.10;;;2.00;;
19225;SDS011;9747;48.536;12.522;2022-12-07T11:24:52;2.38;;;2.20;;
19225;SDS011;9747;48.536;12.522;2022-12-07T11:27:24;2.15;;;2.00;;
19225;SDS011;9747;48.536;12.522;2022-12-07T11:30:02;2.20;;;2.10;;
19225;SDS011;9747;48.536;12.522;2022-12-07T11:32:48;2.10;;;1.92;;
19225;SDS011;9747;48.536;12.522;2022-12-07T11:35:30;2.20;;;2.10;;
19225;SDS011;9747;48.536;12.522;2022-12-07T11:38:08;2.30;;;2.10;;
19225;SDS011;9747;48.536;12.522;2022-12-07T11:40:40;2.50;;;2.30;;
19225;SDS011;9747;48.536;12.522;2022-12-07T11:43:13;2.30;;;1.92;;
19225;SDS011;9747;48.536;12.522;2022-12-07T11:45:47;2.33;;;2.13;;
19225;SDS011;9747;48.536;12.522;2022-12-07T11:48:24;2.03;;;1.90;;
19225;SDS011;9747;48.536;12.522;2022-12-07T11:50:56;4.38;;;2.47;;
19225;SDS011;9747;48.536;12.522;2022-12-07T11:53:26;3.95;;;2.55;;
19225;SDS011;9747;48.536;12.522;2022-12-07T11:56:00;2.90;;;2.22;;
19225;SDS011;9747;48.536;12.522;2022-12-07T11:58:42;4.18;;;2.20;;
19225;SDS011;9747;48.536;12.522;2022-12-07T12:01:18;3.22;;;2.30;;
19225;SDS011;9747;48.536;12.522;2022-12-07T12:04:04;2.70;;;2.30;;
19225;SDS011;9747;48.536;12.522;2022-12-07T12:06:40;2.38;;;2.17;;
19225;SDS011;9747;48.536;12.522;2022-12-07T12:09:11;2.08;;;1.92;;
19225;SDS011;9747;48.536;12.522;2022-12-07T12:11:48;2.13;;;2.03;;
19225;SDS011;9747;48.536;12.522;2022-12-07T12:14:54;2.35;;;2.15;;
19225;SDS011;9747;48.536;12.522;2022-12-07T12:17:39;2.97;;;2.03;;
19225;SDS011;9747;48.536;12.522;2022-12-07T12:20:35;2.45;;;1.90;;
19225;SDS011;9747;48.536;12.522;2022-12-07T12:23:07;2.38;;;2.20;;
19225;SDS011;9747;48.536;12.522;2022-12-07T12:25:39;3.88;;;2.35;;
19225;SDS011;9747;48.536;12.522;2022-12-07T12:28:18;3.17;;;2.25;;
19225;SDS011;9747;48.536;12.522;2022-12-07T12:33:43;2.20;;;2.10;;
19225;SDS011;9747;48.536;12.522;2022-12-07T12:36:26;2.67;;;2.08;;
19225;SDS011;9747;48.536;12.522;2022-12-07T12:39:11;2.53;;;1.98;;
19225;SDS011;9747;48.536;12.522;2022-12-07T12:41:51;2.05;;;1.92;;
19225;SDS011;9747;48.536;12.522;2022-12-07T12:44:39;2.47;;;1.95;;
19225;SDS011;9747;48.536;12.522;2022-12-07T12:47:41;3.90;;;2.10;;
19225;SDS011;9747;48.536;12.522;2022-12-07T12:50:31;5.15;;;2.10;;
19225;SDS011;9747;48.536;12.522;2022-12-07T12:53:05;2.35;;;2.00;;
19225;SDS011;9747;48.536;12.522;2022-12-07T13:01:50;2.15;;;2.05;;
19225;SDS011;9747;48.536;12.522;2022-12-07T13:10:34;2.22;;;2.10;;
19225;SDS011;9747;48.536;12.522;2022-12-07T13:13:25;2.33;;;2.13;;
19225;SDS011;9747;48.536;12.522;2022-12-07T13:25:19;9.18;;;3.88;;
19225;SDS011;9747;48.536;12.522;2022-12-07T13:28:01;31.40;;;13.25;;
19225;SDS011;9747;48.536;12.522;2022-12-07T13:30:36;26.08;;;10.35;;
19225;SDS011;9747;48.536;12.522;2022-12-07T13:33:12;19.58;;;8.93;;
19225;SDS011;9747;48.536;12.522;2022-12-07T13:35:39;17.95;;;8.32;;
19225;SDS011;9747;48.536;12.522;2022-12-07T13:38:16;16.60;;;6.88;;
19225;SDS011;9747;48.536;12.522;2022-12-07T13:41:00;11.93;;;5.97;;
19225;SDS011;9747;48.536;12.522;2022-12-07T13:43:50;11.57;;;5.85;;
19225;SDS011;9747;48.536;12.522;2022-12-07T13:46:31;9.85;;;5.03;;
19225;SDS011;9747;48.536;12.522;2022-12-07T13:49:15;13.23;;;7.07;;
19225;SDS011;9747;48.536;12.522;2022-12-07T13:51:46;12.60;;;6.50;;
19225;SDS011;9747;48.536;12.522;2022-12-07T13:54:14;10.98;;;5.90;;
19225;SDS011;9747;48.536;12.522;2022-12-07T13:56:42;9.70;;;5.80;;
19225;SDS011;9747;48.536;12.522;2022-12-07T13:59:16;14.25;;;5.85;;
19225;SDS011;9747;48.536;12.522;2022-12-07T14:01:45;7.63;;;4.80;;
19225;SDS011;9747;48.536;12.522;2022-12-07T14:04:32;8.48;;;5.03;;
19225;SDS011;9747;48.536;12.522;2022-12-07T14:07:01;8.65;;;4.35;;
19225;SDS011;9747;48.536;12.522;2022-12-07T14:09:54;5.05;;;4.20;;
19225;SDS011;9747;48.536;12.522;2022-12-07T14:12:24;6.18;;;4.28;;
19225;SDS011;9747;48.536;12.522;2022-12-07T14:14:54;6.43;;;4.13;;
19225;SDS011;9747;48.536;12.522;2022-12-07T14:17:23;6.22;;;4.30;;
19225;SDS011;9747;48.536;12.522;2022-12-07T14:19:52;9.35;;;4.53;;
19225;SDS011;9747;48.536;12.522;2022-12-07T14:22:25;16.38;;;4.85;;
19225;SDS011;9747;48.536;12.522;2022-12-07T14:25:00;9.10;;;4.78;;
19225;SDS011;9747;48.536;12.522;2022-12-07T14:27:47;7.20;;;4.10;;
19225;SDS011;9747;48.536;12.522;2022-12-07T14:30:19;6.13;;;4.30;;
19225;SDS011;9747;48.536;12.522;2022-12-07T14:32:48;9.13;;;4.50;;
19225;SDS011;9747;48.536;12.522;2022-12-07T14:35:19;9.73;;;4.05;;
19225;SDS011;9747;48.536;12.522;2022-12-07T14:37:48;9.18;;;3.67;;
19225;SDS011;9747;48.536;12.522;2022-12-07T14:40:16;4.97;;;3.30;;
19225;SDS011;9747;48.536;12.522;2022-12-07T14:42:46;5.47;;;3.35;;
19225;SDS011;9747;48.536;12.522;2022-12-07T14:45:16;15.45;;;4.20;;
19225;SDS011;9747;48.536;12.522;2022-12-07T14:47:47;6.25;;;4.00;;
19225;SDS011;9747;48.536;12.522;2022-12-07T14:50:16;7.07;;;3.53;;
19225;SDS011;9747;48.536;12.522;2022-12-07T14:52:46;5.78;;;3.47;;
19225;SDS011;9747;48.536;12.522;2022-12-07T14:55:19;4.88;;;3.00;;
19225;SDS011;9747;48.536;12.522;2022-12-07T14:57:51;6.40;;;3.65;;
19225;SDS011;9747;48.536;12.522;2022-12-07T15:00:21;4.32;;;2.97;;
19225;SDS011;9747;48.536;12.522;2022-12-07T15:02:51;4.40;;;3.05;;
19225;SDS011;9747;48.536;12.522;2022-12-07T15:05:19;5.68;;;3.50;;
19225;SDS011;9747;48.536;12.522;2022-12-07T15:07:47;4.05;;;3.05;;
19225;SDS011;9747;48.536;12.522;2022-12-07T15:10:16;4.68;;;3.08;;
19225;SDS011;9747;48.536;12.522;2022-12-07T15:12:47;5.65;;;3.72;;
19225;SDS011;9747;48.536;12.522;2022-12-07T15:15:15;5.45;;;3.30;;
19225;SDS011;9747;48.536;12.522;2022-12-07T15:17:44;4.13;;;3.17;;
19225;SDS011;9747;48.536;12.522;2022-12-07T15:20:12;4.72;;;2.65;;
19225;SDS011;9747;48.536;12.522;2022-12-07T15:22:41;3.15;;;2.55;;
19225;SDS011;9747;48.536;12.522;2022-12-07T15:25:12;4.63;;;3.08;;
19225;SDS011;9747;48.536;12.522;2022-12-07T15:27:40;4.40;;;3.00;;
19225;SDS011;9747;48.536;12.522;2022-12-07T15:30:08;5.53;;;3.22;;
19225;SDS011;9747;48.536;12.522;2022-12-07T15:32:36;4.90;;;3.17;;
19225;SDS011;9747;48.536;12.522;2022-12-07T15:35:05;3.35;;;3.00;;
19225;SDS011;9747;48.536;12.522;2022-12-07T15:37:33;4.20;;;3.10;;
19225;SDS011;9747;48.536;12.522;2022-12-07T15:40:01;5.88;;;3.22;;